Time;durP1;ratioP1;P1;durP2;ratioP2;P2;SDS_P1;SDS_P2;PMS_P1;PMS_P2;Temp;Humidity;BMP_temperature;BMP_pressure;BME280_temperature;BME280_humidity;BME280_pressure;Samples;Min_cycle;Max_cycle;Signal;HPM_P1;HPM_P2
2023/02/13 00:01:23;;;;;;;81.53;39.27;;;;;;;-3.57;80.01;102514.30;1399855;88;22451;-81
2023/02/13 00:03:49;;;;;;;67.85;35.98;;;;;;;-3.58;79.33;102516.47;1404376;87;21480;-85
2023/02/13 00:06:15;;;;;;;68.72;36.35;;;;;;;-3.58;79.40;102519.49;1386139;89;21485;-82
2023/02/13 00:08:42;;;;;;;75.42;37.53;;;;;;;-3.59;79.09;102513.90;1389183;88;21340;-79
2023/02/13 00:11:09;;;;;;;73.90;37.63;;;;;;;-3.59;78.81;102518.64;1383589;90;22511;-82
2023/02/13 00:13:35;;;;;;;89.65;42.33;;;;;;;-3.59;78.57;102528.14;1381321;89;21341;-81
2023/02/13 00:16:04;;;;;;;85.77;42.13;;;;;;;-3.60;78.63;102523.80;1382130;91;21286;-80
2023/02/13 00:18:36;;;;;;;87.90;41.05;;;;;;;-3.63;78.65;102519.50;1382735;90;21325;-83
2023/02/13 00:21:11;;;;;;;90.95;41.50;;;;;;;-3.65;78.94;102522.11;1537179;88;21332;-80
2023/02/13 00:23:38;;;;;;;101.78;45.00;;;;;;;-3.67;78.85;102526.42;1435046;88;21488;-80
2023/02/13 00:26:08;;;;;;;89.75;42.93;;;;;;;-3.68;78.86;102529.89;1369207;90;22183;-82
2023/02/13 00:28:35;;;;;;;87.47;42.03;;;;;;;-3.72;78.49;102523.41;1378178;89;21393;-83
2023/02/13 00:31:12;;;;;;;82.67;40.70;;;;;;;-3.74;78.44;102529.02;1382011;88;22413;-81
2023/02/13 00:33:39;;;;;;;91.12;44.15;;;;;;;-3.76;78.62;102530.34;1382712;89;21353;-85
2023/02/13 00:36:09;;;;;;;95.50;45.08;;;;;;;-3.75;78.56;102532.48;1385182;88;22279;-84
2023/02/13 00:38:38;;;;;;;91.78;42.00;;;;;;;-3.72;78.99;102535.06;1521396;88;21266;-82
2023/02/13 00:41:05;;;;;;;85.77;40.40;;;;;;;-3.74;79.99;102535.09;1385443;88;21347;-83
2023/02/13 00:43:31;;;;;;;77.55;40.43;;;;;;;-3.73;79.70;102524.30;1379939;88;21442;-83
2023/02/13 00:45:58;;;;;;;85.60;40.50;;;;;;;-3.71;79.74;102527.72;1386694;89;21457;-82
2023/02/13 00:48:26;;;;;;;74.95;38.85;;;;;;;-3.73;79.46;102525.15;1384928;88;21316;-82
2023/02/13 00:50:52;;;;;;;78.52;40.33;;;;;;;-3.74;79.38;102519.56;1381384;89;21467;-80
2023/02/13 00:53:20;;;;;;;86.82;38.13;;;;;;;-3.75;79.29;102521.70;1384081;88;21543;-79
2023/02/13 00:55:47;;;;;;;83.42;39.83;;;;;;;-3.78;79.56;102521.71;1384646;89;21397;-82
2023/02/13 00:58:14;;;;;;;80.32;38.65;;;;;;;-3.84;79.56;102528.20;1380989;89;21517;-81
2023/02/13 01:00:40;;;;;;;95.20;42.40;;;;;;;-3.85;79.44;102527.78;1537744;88;21340;-82
2023/02/13 01:03:06;;;;;;;73.50;38.53;;;;;;;-3.93;80.64;102529.52;1381073;89;21361;-83
2023/02/13 01:05:33;;;;;;;80.97;39.63;;;;;;;-4.01;81.43;102528.67;1515388;86;21414;-82
2023/02/13 01:07:59;;;;;;;84.45;41.13;;;;;;;-4.04;81.54;102526.09;1532007;88;21523;-82
2023/02/13 01:10:26;;;;;;;74.53;37.98;;;;;;;-4.04;80.92;102527.39;1399139;88;21421;-81
2023/02/13 01:12:52;;;;;;;86.70;39.60;;;;;;;-4.06;81.03;102531.70;1397654;89;22363;-77
2023/02/13 01:15:19;;;;;;;77.72;37.80;;;;;;;-4.04;80.55;102533.86;1397720;88;21354;-77
2023/02/13 01:17:46;;;;;;;80.67;38.45;;;;;;;-4.06;81.03;102539.45;1400797;88;21498;-81
2023/02/13 01:20:13;;;;;;;79.85;38.60;;;;;;;-4.06;79.87;102532.98;1555122;86;22887;-82
2023/02/13 01:22:40;;;;;;;76.62;36.93;;;;;;;-4.04;81.09;102529.98;1394724;88;21472;-81
2023/02/13 01:25:07;;;;;;;79.32;38.00;;;;;;;-4.10;81.36;102530.41;1402532;88;21325;-83
2023/02/13 01:27:33;;;;;;;83.70;40.60;;;;;;;-4.12;81.79;102526.95;1489412;91;21604;-85
2023/02/13 01:29:59;;;;;;;71.35;35.10;;;;;;;-4.15;80.85;102527.40;1365348;90;22309;-83
2023/02/13 01:32:25;;;;;;;75.70;36.53;;;;;;;-4.20;80.81;102527.42;1370747;89;21399;-82
2023/02/13 01:34:52;;;;;;;70.83;35.13;;;;;;;-4.26;80.79;102528.70;1366900;90;21516;-80
2023/02/13 01:37:18;;;;;;;68.28;34.85;;;;;;;-4.33;81.78;102525.27;1365315;90;22248;-85
2023/02/13 01:39:44;;;;;;;75.62;35.10;;;;;;;-4.35;81.42;102517.94;1363699;90;21295;-79
2023/02/13 01:42:15;;;;;;;73.57;33.92;;;;;;;-4.35;81.28;102514.49;1364514;90;21310;-79
2023/02/13 01:44:57;;;;;;;73.02;36.63;;;;;;;-4.36;81.09;102508.91;1406907;89;21391;-81
2023/02/13 01:47:39;;;;;;;76.95;36.93;;;;;;;-4.37;80.64;102511.07;1503547;89;21483;-83
2023/02/13 01:50:22;;;;;;;81.53;35.98;;;;;;;-4.43;81.50;102514.92;1399604;88;21341;-79
2023/02/13 01:52:54;;;;;;;72.70;33.08;;;;;;;-4.44;81.54;102505.46;1559400;86;21324;-83
2023/02/13 01:55:21;;;;;;;66.60;32.88;;;;;;;-4.44;80.91;102501.58;1399357;88;21361;-82
2023/02/13 01:57:52;;;;;;;51.80;27.00;;;;;;;-4.43;81.17;102500.71;1559123;86;22221;-83
2023/02/13 02:00:20;;;;;;;68.45;31.07;;;;;;;-4.43;80.96;102499.42;1558998;88;21325;-82
2023/02/13 02:02:56;;;;;;;52.03;24.02;;;;;;;-4.42;82.27;102499.44;1386324;89;21413;-81
2023/02/13 02:05:26;;;;;;;67.60;31.27;;;;;;;-4.37;81.37;102500.73;1400581;88;21443;-77
2023/02/13 02:07:55;;;;;;;50.92;25.17;;;;;;;-4.34;81.57;102505.46;1394058;88;22235;-79
2023/02/13 02:10:21;;;;;;;48.28;26.68;;;;;;;-4.33;81.51;102502.00;1390780;88;21510;-83
2023/02/13 02:13:05;;;;;;;47.27;25.52;;;;;;;-4.33;81.68;102492.09;1530225;88;21496;-82
2023/02/13 02:15:32;;;;;;;53.78;24.12;;;;;;;-4.31;81.84;102495.55;1550470;86;22476;-81
2023/02/13 02:17:58;;;;;;;56.60;25.57;;;;;;;-4.26;81.52;102487.77;1398729;88;21319;-81
2023/02/13 02:20:38;;;;;;;45.70;23.47;;;;;;;-4.26;81.57;102492.94;1377772;89;21361;-82
2023/02/13 02:23:43;;;;;;;50.50;25.20;;;;;;;-4.28;81.45;102491.66;1547761;86;21348;-80
2023/02/13 02:27:04;;;;;;;50.85;26.30;;;;;;;-4.31;81.16;102491.67;1396059;88;21518;-84
2023/02/13 02:29:58;;;;;;;50.30;26.27;;;;;;;-4.34;81.16;102496.41;1559171;88;21288;-82
2023/02/13 02:32:35;;;;;;;54.18;27.58;;;;;;;-4.37;81.03;102496.42;1398650;89;21959;-83
2023/02/13 02:35:22;;;;;;;65.50;32.17;;;;;;;-4.41;81.33;102494.68;1560600;88;21333;-81
2023/02/13 02:38:09;;;;;;;64.50;27.50;;;;;;;-4.42;81.29;102497.28;1557672;88;22371;-79
2023/02/13 02:41:40;;;;;;;62.85;30.82;;;;;;;-4.43;80.86;102505.88;1550215;88;21436;-83
2023/02/13 02:44:24;;;;;;;66.05;30.50;;;;;;;-4.45;80.65;102502.45;1449411;88;21591;-81
2023/02/13 02:50:38;;;;;;;58.30;29.25;;;;;;;-4.47;80.99;102512.78;1400962;88;21370;-84
2023/02/13 02:53:44;;;;;;;61.80;29.80;;;;;;;-4.49;81.08;102508.03;1554761;88;21316;-83
2023/02/13 02:56:35;;;;;;;59.53;30.35;;;;;;;-4.50;80.89;102522.27;1394366;88;21384;-83
2023/02/13 03:07:28;;;;;;;73.02;33.35;;;;;;;-4.64;81.32;102536.04;1494996;88;21543;-83
2023/02/13 03:13:29;;;;;;;74.77;33.55;;;;;;;-4.71;82.64;102534.33;1402398;88;22235;-81
2023/02/13 03:22:18;;;;;;;77.95;36.88;;;;;;;-4.69;83.15;102530.44;1553580;87;21310;-83
2023/02/13 03:25:04;;;;;;;70.60;36.08;;;;;;;-4.65;82.50;102529.59;1362547;88;21511;-82
2023/02/13 03:30:46;;;;;;;76.53;35.90;;;;;;;-4.63;81.60;102530.03;1546507;86;22386;-83
2023/02/13 03:33:50;;;;;;;75.35;37.10;;;;;;;-4.63;81.72;102525.27;1448842;88;21568;-85
2023/02/13 03:40:03;;;;;;;78.35;36.90;;;;;;;-4.67;81.78;102527.43;1463535;88;22213;-84
2023/02/13 03:42:55;;;;;;;75.95;34.50;;;;;;;-4.71;81.75;102517.53;1466613;86;22657;-83
2023/02/13 03:51:09;;;;;;;67.97;31.80;;;;;;;-4.82;82.04;102520.53;1471228;88;21442;-82
2023/02/13 03:53:38;;;;;;;73.57;33.73;;;;;;;-4.87;82.39;102510.18;1465485;88;21437;-79
2023/02/13 03:59:15;;;;;;;75.10;35.30;;;;;;;-4.86;81.57;102505.47;1556978;87;21289;-86
2023/02/13 04:01:49;;;;;;;68.75;32.90;;;;;;;-4.86;81.36;102499.01;1554108;88;21326;-85
2023/02/13 04:04:39;;;;;;;80.55;36.98;;;;;;;-4.84;81.20;102493.83;1395312;88;21436;-82
2023/02/13 04:07:11;;;;;;;73.67;31.23;;;;;;;-4.80;81.26;102496.86;1412809;88;22182;-82
2023/02/13 04:09:41;;;;;;;76.33;34.50;;;;;;;-4.78;81.07;102502.44;1529149;88;21484;-82
2023/02/13 04:12:39;;;;;;;72.70;34.38;;;;;;;-4.78;81.36;102502.44;1411968;86;23797;-84
2023/02/13 04:15:17;;;;;;;67.22;33.63;;;;;;;-4.82;81.41;102502.02;1471317;86;21509;-81
2023/02/13 04:17:51;;;;;;;71.22;30.30;;;;;;;-4.86;81.38;102499.01;1466046;88;21583;-84
2023/02/13 04:20:18;;;;;;;67.82;32.17;;;;;;;-4.86;80.98;102500.70;1473911;88;22573;-86
2023/02/13 04:22:47;;;;;;;69.07;33.53;;;;;;;-4.91;80.97;102503.30;1462366;88;21473;-82
2023/02/13 04:25:17;;;;;;;61.92;31.45;;;;;;;-4.91;81.00;102492.12;1459052;86;21493;-84
2023/02/13 04:27:43;;;;;;;59.70;27.30;;;;;;;-4.94;81.21;102497.28;1467025;86;21488;-84
2023/02/13 04:30:11;;;;;;;65.92;33.80;;;;;;;-4.96;81.48;102502.43;1469874;88;21597;-84
2023/02/13 04:32:37;;;;;;;73.83;34.08;;;;;;;-4.95;80.90;102503.28;1466185;88;21590;-83
2023/02/13 04:35:04;;;;;;;71.42;36.33;;;;;;;-4.97;80.77;102497.28;1472298;86;22625;-85
2023/02/13 04:37:30;;;;;;;78.75;33.05;;;;;;;-4.97;81.00;102492.11;1467179;86;22395;-84
2023/02/13 04:39:57;;;;;;;72.25;35.50;;;;;;;-4.99;81.05;102491.66;1470674;86;21443;-84
2023/02/13 04:42:23;;;;;;;67.08;34.73;;;;;;;-4.99;80.89;102494.24;1464812;88;21546;-84
2023/02/13 04:44:49;;;;;;;70.17;32.90;;;;;;;-4.99;81.01;102493.39;1469072;86;21355;-84
2023/02/13 04:47:15;;;;;;;67.15;31.45;;;;;;;-5.02;81.27;102480.03;1471875;86;21435;-85
2023/02/13 04:49:41;;;;;;;62.75;32.40;;;;;;;-5.00;81.24;102481.34;1465317;88;22436;-82
2023/02/13 04:52:07;;;;;;;69.60;32.95;;;;;;;-5.00;81.17;102491.24;1467639;86;21458;-84
2023/02/13 04:54:33;;;;;;;63.40;29.95;;;;;;;-5.01;81.18;102489.50;1471269;88;21420;-84
2023/02/13 04:56:59;;;;;;;71.65;32.93;;;;;;;-5.00;81.12;102499.42;1472426;87;21619;-83
2023/02/13 04:59:25;;;;;;;61.77;31.15;;;;;;;-4.99;81.49;102501.98;1466421;88;21450;-85
2023/02/13 05:01:53;;;;;;;58.17;29.57;;;;;;;-4.92;81.58;102501.99;1465765;86;21545;-83
2023/02/13 05:04:19;;;;;;;66.85;31.10;;;;;;;-4.87;81.90;102500.28;1451014;87;21650;-82
2023/02/13 05:06:45;;;;;;;63.28;29.90;;;;;;;-4.84;82.26;102497.70;1470948;86;21436;-79
2023/02/13 05:09:12;;;;;;;67.42;32.58;;;;;;;-4.78;81.92;102505.02;1466256;88;21612;-82
2023/02/13 05:11:38;;;;;;;62.58;31.20;;;;;;;-4.72;82.49;102510.63;1467886;88;21405;-81
2023/02/13 05:14:04;;;;;;;71.15;34.33;;;;;;;-4.70;83.29;102519.24;1466550;86;21472;-81
2023/02/13 05:16:31;;;;;;;73.97;36.90;;;;;;;-4.63;83.19;102526.55;1461846;86;21511;-82
2023/02/13 05:18:57;;;;;;;67.53;34.63;;;;;;;-4.57;82.95;102527.44;1451977;88;21614;-82
2023/02/13 05:24:08;;;;;;;92.45;45.75;;;;;;;-4.42;82.24;102538.64;1458386;86;21420;-82
2023/02/13 05:26:34;;;;;;;90.00;41.20;;;;;;;-4.34;82.41;102523.99;1470326;86;21919;-80
2023/02/13 05:29:19;;;;;;;84.22;42.08;;;;;;;-4.29;83.66;102532.58;1461963;86;21532;-76
2023/02/13 05:31:48;;;;;;;88.22;42.67;;;;;;;-4.19;83.15;102530.87;1467578;88;21421;-81
2023/02/13 05:34:14;;;;;;;82.67;41.85;;;;;;;-4.12;83.50;102538.59;1383887;88;21338;-78
2023/02/13 05:36:41;;;;;;;75.45;39.30;;;;;;;-4.05;84.28;102530.41;1389590;90;21457;-79
2023/02/13 05:39:07;;;;;;;71.05;39.92;;;;;;;-3.96;83.59;102527.80;1384479;89;21289;-81
2023/02/13 05:41:34;;;;;;;95.62;45.15;;;;;;;-3.88;83.13;102531.67;1394280;89;22227;-81
2023/02/13 05:44:00;;;;;;;86.10;42.60;;;;;;;-3.82;83.39;102529.06;1394263;88;21348;-83
2023/02/13 05:46:26;;;;;;;87.88;37.58;;;;;;;-3.75;83.43;102529.45;1401162;88;21316;-85
2023/02/13 05:48:52;;;;;;;82.25;42.38;;;;;;;-3.67;83.59;102530.30;1375426;90;21502;-81
2023/02/13 05:51:19;;;;;;;81.53;40.25;;;;;;;-3.58;83.72;102537.61;1394437;86;21352;-80
2023/02/13 05:53:45;;;;;;;93.97;46.35;;;;;;;-3.52;83.52;102524.64;1398004;86;21289;-79
2023/02/13 05:56:12;;;;;;;69.60;35.17;;;;;;;-3.45;83.84;102532.39;1394052;88;21293;-80
2023/02/13 05:58:38;;;;;;;79.67;38.88;;;;;;;-3.38;83.52;102545.30;1527261;88;21397;-81
2023/02/13 06:01:05;;;;;;;67.30;34.58;;;;;;;-3.37;85.08;102540.09;1392860;88;21414;-81
2023/02/13 06:03:32;;;;;;;80.80;40.60;;;;;;;-3.32;84.29;102535.77;1392618;88;21569;-82
2023/02/13 06:05:59;;;;;;;85.10;42.93;;;;;;;-3.24;84.49;102533.15;1390511;90;21317;-77
2023/02/13 06:08:25;;;;;;;78.50;39.90;;;;;;;-3.20;85.62;102533.55;1400379;88;21472;-79
2023/02/13 06:10:51;;;;;;;73.35;35.50;;;;;;;-3.14;84.60;102530.06;1547782;86;21273;-81
2023/02/13 06:13:18;;;;;;;81.05;36.48;;;;;;;-3.08;85.39;102539.09;1393019;88;21496;-83
2023/02/13 06:15:44;;;;;;;93.75;38.02;;;;;;;-3.11;85.99;102548.17;1395920;88;21334;-82
2023/02/13 06:18:11;;;;;;;91.92;41.48;;;;;;;-3.03;84.69;102551.15;1395079;88;22296;-81
2023/02/13 06:20:37;;;;;;;105.45;56.00;;;;;;;-2.92;84.63;102559.31;1422409;88;21398;-78
2023/02/13 06:23:04;;;;;;;104.75;51.02;;;;;;;-2.85;84.63;102561.86;1463944;88;21575;-78
2023/02/13 06:25:30;;;;;;;95.30;49.10;;;;;;;-2.78;84.76;102564.83;1444197;88;21524;-77
2023/02/13 06:27:57;;;;;;;108.03;50.23;;;;;;;-2.77;85.95;102563.94;1466583;88;21405;-77
2023/02/13 06:30:23;;;;;;;112.42;55.40;;;;;;;-2.70;85.04;102558.71;1470808;86;21546;-83
2023/02/13 06:32:49;;;;;;;108.78;50.90;;;;;;;-2.64;85.02;102559.99;1459147;86;21515;-84
2023/02/13 06:35:15;;;;;;;106.15;51.95;;;;;;;-2.56;84.69;102560.77;1464554;88;21471;-78
2023/02/13 06:37:43;;;;;;;83.30;46.05;;;;;;;-2.52;85.29;102570.27;1468949;86;21503;-83
2023/02/13 06:40:11;;;;;;;85.90;43.05;;;;;;;-2.47;85.32;102564.62;1549359;86;21348;-84
2023/02/13 06:42:37;;;;;;;88.12;46.18;;;;;;;-2.40;85.04;102562.83;1398824;88;22003;-84
2023/02/13 06:45:07;;;;;;;91.25;44.83;;;;;;;-2.36;86.36;102564.09;1429812;86;21355;-84
2023/02/13 06:47:33;;;;;;;110.80;54.08;;;;;;;-2.31;85.42;102569.23;1382092;89;21376;-84
2023/02/13 06:50:00;;;;;;;143.40;61.77;;;;;;;-2.27;85.74;102559.27;1390306;88;22330;-84
2023/02/13 06:52:32;;;;;;;150.72;62.65;;;;;;;-2.19;85.21;102566.96;1394440;88;21311;-86
2023/02/13 06:54:58;;;;;;;155.40;65.65;;;;;;;-2.18;85.81;102566.96;1395874;88;22168;-85
2023/02/13 06:57:25;;;;;;;158.20;69.77;;;;;;;-2.10;85.35;102570.77;1392819;88;21392;-86
2023/02/13 07:00:16;;;;;;;148.97;68.95;;;;;;;-2.04;85.52;102579.81;1394865;89;21331;-85
2023/02/13 07:02:45;;;;;;;151.50;73.62;;;;;;;-1.96;85.21;102575.83;1514950;89;21428;-86
2023/02/13 07:05:11;;;;;;;170.90;83.72;;;;;;;-1.85;85.16;102566.20;1388125;91;21413;-83
2023/02/13 07:07:42;;;;;;;108.87;59.00;;;;;;;-1.77;85.27;102568.73;1400800;88;21515;-87
2023/02/13 07:10:12;;;;;;;104.65;55.73;;;;;;;-1.70;85.11;102567.77;1550231;86;21451;-86
2023/02/13 07:12:39;;;;;;;123.70;65.35;;;;;;;-1.65;85.58;102572.04;1393636;89;21339;-84
2023/02/13 07:15:07;;;;;;;108.40;56.53;;;;;;;-1.55;84.92;102575.41;1406507;88;21303;-85
2023/02/13 07:17:33;;;;;;;99.52;51.18;;;;;;;-1.46;84.68;102571.41;1397895;88;21450;-84
2023/02/13 07:19:59;;;;;;;85.97;48.95;;;;;;;-1.38;84.50;102574.77;1378259;90;21361;-84
2023/02/13 07:22:31;;;;;;;91.10;47.23;;;;;;;-1.32;83.96;102576.44;1382291;89;21530;-84
2023/02/13 07:24:58;;;;;;;82.08;45.63;;;;;;;-1.23;83.77;102567.67;1392550;90;22448;-86
2023/02/13 07:27:28;;;;;;;92.97;46.28;;;;;;;-1.16;83.70;102566.70;1394448;89;21389;-85
2023/02/13 07:29:57;;;;;;;91.17;45.43;;;;;;;-1.07;83.43;102567.86;1396772;88;21368;-85
2023/02/13 07:32:24;;;;;;;88.95;48.28;;;;;;;-1.00;83.42;102572.56;1534738;88;21325;-84
2023/02/13 07:34:50;;;;;;;104.17;58.78;;;;;;;-0.99;82.90;102572.52;1397647;89;22390;-84
2023/02/13 07:37:17;;;;;;;97.67;49.13;;;;;;;-0.92;83.03;102575.92;1378004;89;22265;-83
2023/02/13 07:39:43;;;;;;;104.75;56.15;;;;;;;-0.87;83.08;102575.84;1393723;88;21332;-87
2023/02/13 07:42:09;;;;;;;118.60;59.03;;;;;;;-0.79;83.13;102578.74;1398646;88;21346;-87
2023/02/13 07:44:35;;;;;;;112.68;58.58;;;;;;;-0.66;83.25;102581.16;1401877;88;21353;-86
2023/02/13 07:47:01;;;;;;;121.77;61.77;;;;;;;-0.59;83.19;102584.95;1402026;88;22738;-86
2023/02/13 07:49:27;;;;;;;139.82;63.25;;;;;;;-0.49;83.12;102579.16;1399044;88;21281;-86
2023/02/13 07:51:57;;;;;;;142.77;62.67;;;;;;;-0.38;82.88;102578.99;1396340;88;22301;-85
2023/02/13 07:54:26;;;;;;;143.37;66.25;;;;;;;-0.30;82.83;102570.17;1397056;88;22169;-84
2023/02/13 07:56:52;;;;;;;142.80;65.35;;;;;;;-0.21;82.64;102570.47;1380367;89;21481;-82
2023/02/13 07:59:18;;;;;;;147.10;63.87;;;;;;;-0.09;82.40;102572.84;1439438;87;21435;-83
2023/02/13 08:01:50;;;;;;;127.22;59.05;;;;;;;0.05;82.25;102573.05;1470795;87;22109;-83
2023/02/13 08:04:16;;;;;;;121.50;56.47;;;;;;;0.13;81.71;102572.03;1476746;87;22404;-85
2023/02/13 08:06:42;;;;;;;88.07;43.33;;;;;;;0.22;81.30;102578.81;1477996;88;21672;-85
2023/02/13 08:12:07;;;;;;;83.37;37.97;;;;;;;0.42;81.24;102577.98;1482358;88;22687;-84
2023/02/13 08:14:34;;;;;;;58.77;31.37;;;;;;;0.53;80.80;102583.00;1483025;88;22627;-85
2023/02/13 08:17:00;;;;;;;55.00;28.03;;;;;;;0.60;79.95;102582.42;1480441;88;21721;-83
2023/02/13 08:19:27;;;;;;;52.30;31.87;;;;;;;0.66;79.73;102580.98;1455590;88;21909;-82
2023/02/13 08:21:54;;;;;;;75.20;41.53;;;;;;;0.71;79.63;102573.09;1479368;88;21856;-85
2023/02/13 08:24:20;;;;;;;75.50;46.27;;;;;;;0.76;79.25;102568.19;1481516;88;21776;-85
2023/02/13 08:26:47;;;;;;;82.03;48.27;;;;;;;0.86;79.46;102572.34;1482086;88;21730;-83
2023/02/13 08:29:13;;;;;;;79.93;46.07;;;;;;;0.97;79.51;102563.41;1481319;88;21620;-86
2023/02/13 08:31:39;;;;;;;92.10;51.53;;;;;;;1.03;79.15;102567.17;1480785;88;22676;-84
2023/02/13 08:34:05;;;;;;;98.37;54.50;;;;;;;1.10;79.11;102568.77;1479642;88;22134;-83
2023/02/13 08:36:31;;;;;;;94.90;51.33;;;;;;;1.16;78.87;102567.78;1480324;88;21797;-82
2023/02/13 08:38:58;;;;;;;83.43;47.50;;;;;;;1.25;79.17;102564.50;1475524;88;21575;-83
2023/02/13 08:41:24;;;;;;;72.97;41.60;;;;;;;1.34;78.81;102572.11;1481896;88;21979;-86
2023/02/13 08:43:53;;;;;;;76.63;39.80;;;;;;;1.45;78.46;102567.09;1480343;88;22628;-85
2023/02/13 08:46:19;;;;;;;77.50;45.20;;;;;;;1.54;78.19;102561.65;1480863;88;21751;-85
2023/02/13 08:48:45;;;;;;;78.40;42.77;;;;;;;1.60;78.09;102553.66;1480359;88;21619;-84
2023/02/13 08:51:13;;;;;;;73.57;43.77;;;;;;;1.66;77.71;102553.96;1475629;88;22692;-84
2023/02/13 08:53:41;;;;;;;76.07;45.43;;;;;;;1.75;77.53;102548.50;1401781;88;21710;-83
2023/02/13 08:56:07;;;;;;;81.63;44.43;;;;;;;1.79;76.92;102538.41;1402012;88;21537;-79
2023/02/13 08:58:34;;;;;;;87.63;47.47;;;;;;;1.83;76.63;102537.88;1414820;88;21435;-80
2023/02/13 09:01:06;;;;;;;84.93;47.60;;;;;;;1.97;76.33;102535.76;1478494;88;21614;-80
2023/02/13 09:03:34;;;;;;;102.30;55.60;;;;;;;2.13;76.43;102533.16;1473917;88;21838;-77
2023/02/13 09:06:01;;;;;;;100.63;53.20;;;;;;;2.29;75.89;102543.17;1477624;88;21635;-78
2023/02/13 09:08:28;;;;;;;121.53;61.27;;;;;;;2.39;75.12;102540.27;1473732;88;22270;-77
2023/02/13 09:11:03;;;;;;;125.70;65.17;;;;;;;2.49;74.96;102531.70;1476890;88;21914;-81
2023/02/13 09:13:34;;;;;;;134.20;68.90;;;;;;;2.61;74.70;102535.71;1484484;88;22588;-79
2023/02/13 09:16:02;;;;;;;133.93;66.67;;;;;;;2.73;74.45;102526.19;1476163;88;21755;-86
2023/02/13 09:18:28;;;;;;;113.03;56.50;;;;;;;2.83;73.61;102530.72;1483166;88;21383;-78
2023/02/13 09:21:01;;;;;;;91.53;49.07;;;;;;;2.87;72.95;102526.63;1478590;88;21713;-79
2023/02/13 09:23:37;;;;;;;64.97;34.80;;;;;;;3.08;72.01;102533.41;1489932;88;22574;-79
2023/02/13 09:26:06;;;;;;;66.07;34.37;;;;;;;3.14;71.35;102522.33;1479675;88;21924;-87
2023/02/13 09:28:34;;;;;;;48.73;28.87;;;;;;;3.36;71.04;102529.47;1479617;88;22069;-84
2023/02/13 09:31:22;;;;;;;49.60;27.13;;;;;;;3.36;71.04;102529.47;1476005;88;22201;-83
2023/02/13 09:33:49;;;;;;;47.77;22.70;;;;;;;3.77;71.37;102524.61;1477864;88;22193;-84
2023/02/13 09:36:19;;;;;;;41.33;22.30;;;;;;;4.45;68.99;102524.39;1474882;88;22318;-83
2023/02/13 09:38:49;;;;;;;35.57;19.90;;;;;;;5.06;66.85;102515.93;1478106;88;22191;-84
2023/02/13 09:41:20;;;;;;;41.13;22.70;;;;;;;5.72;65.60;102510.12;1462779;88;22091;-82
2023/02/13 09:44:01;;;;;;;30.40;16.77;;;;;;;6.49;64.67;102508.10;1485189;88;22345;-84
2023/02/13 09:46:36;;;;;;;;;;;;;;;7.22;62.84;102502.42;1485026;88;21620;-84
2023/02/13 09:49:19;;;;;;;25.77;15.43;;;;;;;7.64;55.58;102501.23;1475372;88;20260;-82
2023/02/13 09:51:49;;;;;;;24.87;15.90;;;;;;;8.19;58.10;102510.70;1498130;88;21479;-86
2023/02/13 09:54:19;;;;;;;24.67;15.80;;;;;;;8.64;56.99;102513.16;1479567;88;23097;-86
2023/02/13 10:00:50;;;;;;;21.73;14.00;;;;;;;8.91;54.76;102505.48;1480197;88;21568;-83
2023/02/13 10:03:56;;;;;;;20.40;13.10;;;;;;;9.31;54.21;102493.96;1479399;88;22144;-83
2023/02/13 10:06:48;;;;;;;19.93;12.83;;;;;;;9.31;52.55;102494.81;1477293;88;21705;-82
2023/02/13 10:09:23;;;;;;;37.30;20.40;;;;;;;9.28;49.90;102481.77;1479211;88;21670;-83
2023/02/13 10:12:16;;;;;;;20.87;13.53;;;;;;;9.47;51.23;102486.38;1473724;88;22477;-84
2023/02/13 10:14:50;;;;;;;16.87;11.70;;;;;;;9.60;50.26;102476.39;1475801;88;21525;-85
2023/02/13 10:17:24;;;;;;;29.00;16.40;;;;;;;9.80;50.22;102477.84;1474512;88;21428;-83
2023/02/13 10:20:02;;;;;;;30.47;16.47;;;;;;;9.81;49.22;102465.86;1476156;88;22126;-84
2023/02/13 10:22:34;;;;;;;24.10;15.63;;;;;;;9.98;50.30;102469.25;1472626;88;21494;-85
2023/02/13 10:25:17;;;;;;;25.70;15.83;;;;;;;10.26;50.20;102469.73;1475186;88;21493;-81
2023/02/13 10:28:06;;;;;;;27.57;18.17;;;;;;;10.21;47.71;102467.84;1473371;88;21479;-85
2023/02/13 10:30:37;;;;;;;17.40;12.70;;;;;;;10.15;47.27;102457.16;1473083;88;21571;-89
2023/02/13 10:33:17;;;;;;;22.27;14.60;;;;;;;10.21;49.49;102461.22;1469072;88;21458;-88
2023/02/13 10:36:01;;;;;;;32.23;19.55;;;;;;;9.96;49.20;102459.27;1476014;88;21494;-84
2023/02/13 10:38:31;;;;;;;26.10;15.13;;;;;;;9.51;47.98;102449.19;1463477;88;21457;-88
2023/02/13 10:41:12;;;;;;;21.35;13.25;;;;;;;9.48;49.73;102436.52;1455830;88;21502;-88
2023/02/13 10:43:59;;;;;;;27.87;17.40;;;;;;;9.37;49.38;102430.17;1469990;88;21443;-88
2023/02/13 10:46:42;;;;;;;22.97;15.27;;;;;;;9.14;48.97;102427.09;1474751;88;21524;-87
2023/02/13 10:49:36;;;;;;;19.60;13.70;;;;;;;9.08;48.53;102427.92;1475923;88;21538;-82
2023/02/13 10:52:26;;;;;;;20.03;13.13;;;;;;;9.02;48.09;102421.20;1475564;88;21587;-82
2023/02/13 10:55:21;;;;;;;20.43;14.03;;;;;;;9.06;48.82;102421.88;1470069;88;21620;-81
2023/02/13 10:58:25;;;;;;;24.27;15.67;;;;;;;9.17;48.60;102418.14;1469778;88;21678;-80
2023/02/13 11:01:15;;;;;;;28.00;16.23;;;;;;;9.30;50.03;102415.64;1467307;88;21487;-79
2023/02/13 11:03:46;;;;;;;28.17;16.30;;;;;;;9.32;48.98;102404.05;1469920;88;22602;-81
2023/02/13 11:06:16;;;;;;;28.07;17.97;;;;;;;9.38;48.74;102405.44;1468686;88;21619;-89
2023/02/13 11:08:47;;;;;;;24.60;16.07;;;;;;;9.40;47.93;102413.66;1478385;88;21458;-90
2023/02/13 11:11:34;;;;;;;;;;;;;;;9.30;48.51;102408.56;1480127;88;21538;-90
2023/02/13 11:14:15;;;;;;;28.13;16.90;;;;;;;9.17;47.46;102408.89;1480005;88;20402;-92
2023/02/13 11:17:04;;;;;;;19.60;12.70;;;;;;;9.06;47.44;102403.38;1482775;88;21539;-90
2023/02/13 11:19:51;;;;;;;19.20;13.73;;;;;;;8.96;48.27;102410.53;1480419;88;21484;-92
2023/02/13 11:22:37;;;;;;;24.37;12.37;;;;;;;8.88;48.25;102404.83;1478737;88;22640;-90
2023/02/13 11:25:23;;;;;;;17.70;12.33;;;;;;;8.98;47.83;102401.21;1481207;88;22404;-91
2023/02/13 11:27:53;;;;;;;22.47;16.40;;;;;;;9.22;49.20;102402.87;1481597;88;21523;-89
2023/02/13 11:30:35;;;;;;;19.03;13.10;;;;;;;9.30;48.39;102400.63;1477022;88;21613;-92
2023/02/13 11:33:19;;;;;;;28.10;15.13;;;;;;;9.08;48.14;102393.59;1482403;88;21398;-87
2023/02/13 11:35:47;;;;;;;19.60;13.40;;;;;;;9.22;48.98;102389.66;1479259;88;22380;-91
2023/02/13 11:38:18;;;;;;;29.10;20.00;;;;;;;9.14;49.03;102393.22;1481268;88;21641;-91
2023/02/13 11:41:06;;;;;;;31.97;21.57;;;;;;;9.58;49.59;102383.09;1482674;88;21934;-93
2023/02/13 11:43:50;;;;;;;36.77;21.63;;;;;;;9.73;48.85;102384.82;1459900;88;21442;-93
2023/02/13 11:46:20;;;;;;;27.53;19.10;;;;;;;9.73;48.31;102379.53;1475677;88;22396;-92
2023/02/13 11:49:04;;;;;;;49.40;16.07;;;;;;;9.77;48.03;102373.09;1483466;88;21494;-93
2023/02/13 11:51:41;;;;;;;35.77;22.37;;;;;;;9.81;48.12;102385.66;1481873;88;21668;-93
2023/02/13 11:54:33;;;;;;;30.10;21.30;;;;;;;9.74;47.79;102383.02;1484919;88;22330;-92
2023/02/13 11:57:33;;;;;;;21.47;17.00;;;;;;;9.48;47.55;102368.28;1486500;88;22032;-92
2023/02/13 12:00:03;;;;;;;24.98;17.37;;;;;;;9.43;46.99;102374.31;1479634;88;21694;-94
2023/02/13 12:02:33;;;;;;;28.47;18.33;;;;;;;9.72;47.99;102371.20;1461568;88;21523;-91
2023/02/13 12:05:24;;;;;;;28.50;15.58;;;;;;;9.94;48.10;102363.64;1461986;88;21560;-91
2023/02/13 12:07:50;;;;;;;;;;;;;;;9.80;46.02;102354.88;1480655;88;21427;-93
2023/02/13 12:10:24;;;;;;;24.93;15.63;;;;;;;9.96;46.64;102358.75;1487680;88;20841;-93
2023/02/13 12:13:08;;;;;;;22.53;16.37;;;;;;;10.08;47.24;102359.28;1482756;88;21560;-90
2023/02/13 12:15:36;;;;;;;28.20;14.73;;;;;;;10.15;46.88;102347.34;1415593;91;21487;-88
2023/02/13 12:18:19;;;;;;;22.77;16.60;;;;;;;10.17;46.99;102351.60;1481719;88;21612;-90
2023/02/13 12:21:30;;;;;;;18.77;14.70;;;;;;;10.03;46.50;102342.85;1482994;88;21465;-92
2023/02/13 12:24:17;;;;;;;26.00;16.93;;;;;;;10.21;46.99;102350.92;1480638;88;21583;-91